Aviation Digital Data Service (ADDS)

Output produced by TAFs form (1147 UTC 27 May 2015)
found at http://aviationweather.gov/adds/tafs/
 
KAMA 271120Z 2712/2812 18008KT P6SM SCT120 
     TEMPO 2713/2717 P6SM OVC007 
     FM271800 18015KT P6SM SCT070 SCT250 
     FM280100 16013KT P6SM SCT100